Terminal Aerodrome Forecast
Issued by NWS Austin/San Antonio, TX

Home | Current Version | Previous Version | Text Only | Print | Product List | Glossary On
Versions: 1 2 3 4 5 6 7 8 9 10 11 12 13 14 15 16 17 18 19
000
FTUS44 KEWX 022100 AAB
TAFAUS
TAF AMD
KAUS 022135Z 0222/0324 16012G22KT P6SM VCSH SCT080 BKN250
     FM030200 16010KT P6SM FEW060
     FM030700 17005KT P6SM BKN015
     FM031600 17010KT P6SM BKN040=

USA.gov is the U.S. government's official web portal to all federal, state and local government web resources and services.